PWSweather.com
Personal Weather Stations
Station Observations
133525
French Quarters West Seneca , West Seneca, NY 14224

French Quarters West Seneca West Seneca, NY 14224

Lat: 42.850058, Lon: -78.799754

Elevation: 603

Station Type: Davis Vantage Vue pro2

http://westsenecaweather.com/

High Low Average
Temperature 59.7°F15.4°C 41.3°F5.2°C 49.1°F9.5°C
Dew Point 44.2°F6.8°C 38.0°F3.3°C 41.0°F5.0°C
Winds 6.9 mph 11.1 kmh Calm Calm 2.0 mph SSE3.2 kmh SSE
Wind Gusts 10.4 mph16.7 kmh -- 3.0 mph4.8 kmh
Humidity 92% 52% 75%
Pressure 30.18 in1022.0 mb 30.03 in1016.9 mb -
Precipitation 0.00 in0.0 mm - -
Hour Temp Dew Point Humidity Winds Wind Gusts Pressure Precip Precip Rate Daily Precip Total
12:00 AM 41.3°F5.2°C 36.5°F2.5°C 83% Calm Calm -- 30.08 in1018.6 mb - 0.00 in0.0 mm 0.00 in0.0 mm
12:10 AM 41.0°F5.0°C 36.5°F2.5°C 84% Calm Calm -- 30.09 in1019.0 mb - 0.00 in0.0 mm 0.00 in0.0 mm
12:15 AM 40.9°F4.9°C 36.4°F2.4°C 84% Calm Calm -- 30.09 in1019.0 mb - 0.00 in0.0 mm 0.00 in0.0 mm
12:20 AM 40.7°F4.8°C 36.5°F2.5°C 85% Calm Calm -- 30.09 in1019.0 mb - 0.00 in0.0 mm 0.00 in0.0 mm
12:25 AM 40.7°F4.8°C 36.5°F2.5°C 85% Calm Calm -- 30.09 in1019.0 mb - 0.00 in0.0 mm 0.00 in0.0 mm
12:30 AM 40.7°F4.8°C 36.8°F2.7°C 86% Calm Calm -- 30.09 in1019.0 mb - 0.00 in0.0 mm 0.00 in0.0 mm
12:35 AM 40.7°F4.8°C 37.1°F2.8°C 87% Calm Calm -- 30.09 in1019.0 mb - 0.00 in0.0 mm 0.00 in0.0 mm
12:40 AM 40.8°F4.9°C 37.3°F2.9°C 87% Calm Calm -- 30.09 in1019.0 mb - 0.00 in0.0 mm 0.00 in0.0 mm
12:45 AM 40.9°F4.9°C 37.6°F3.1°C 88% Calm Calm -- 30.09 in1019.0 mb - 0.00 in0.0 mm 0.00 in0.0 mm
12:50 AM 41.0°F5.0°C 37.7°F3.2°C 88% Calm Calm -- 30.09 in1019.0 mb - 0.00 in0.0 mm 0.00 in0.0 mm
12:55 AM 41.2°F5.1°C 37.9°F3.3°C 88% Calm Calm -- 30.09 in1019.0 mb - 0.00 in0.0 mm 0.00 in0.0 mm
01:00 AM 41.3°F5.2°C 38.0°F3.3°C 88% Calm Calm -- 30.09 in1019.0 mb - 0.00 in0.0 mm 0.00 in0.0 mm
01:10 AM 41.6°F5.3°C 38.3°F3.5°C 88% Calm Calm -- 30.09 in1019.0 mb - 0.00 in0.0 mm 0.00 in0.0 mm
01:15 AM 41.9°F5.5°C 38.6°F3.7°C 88% Calm Calm -- 30.09 in1019.0 mb - 0.00 in0.0 mm 0.00 in0.0 mm
01:20 AM 42.2°F5.7°C 38.9°F3.8°C 88% Calm Calm -- 30.09 in1019.0 mb - 0.00 in0.0 mm 0.00 in0.0 mm
01:25 AM 42.4°F5.8°C 39.1°F3.9°C 88% Calm Calm -- 30.09 in1019.0 mb - 0.00 in0.0 mm 0.00 in0.0 mm
01:30 AM 42.5°F5.8°C 38.9°F3.8°C 87% Calm Calm -- 30.09 in1019.0 mb - 0.00 in0.0 mm 0.00 in0.0 mm
01:35 AM 42.7°F5.9°C 39.1°F3.9°C 87% Calm Calm -- 30.09 in1019.0 mb - 0.00 in0.0 mm 0.00 in0.0 mm
01:40 AM 42.7°F5.9°C 39.1°F3.9°C 87% Calm Calm -- 30.09 in1019.0 mb - 0.00 in0.0 mm 0.00 in0.0 mm
01:45 AM 42.6°F5.9°C 39.0°F3.9°C 87% Calm Calm -- 30.09 in1019.0 mb - 0.00 in0.0 mm 0.00 in0.0 mm
01:50 AM 42.7°F5.9°C 39.1°F3.9°C 87% Calm Calm -- 30.09 in1019.0 mb - 0.00 in0.0 mm 0.00 in0.0 mm
01:55 AM 42.8°F6.0°C 38.9°F3.8°C 86% Calm Calm -- 30.10 in1019.3 mb - 0.00 in0.0 mm 0.00 in0.0 mm
02:00 AM 42.9°F6.1°C 39.0°F3.9°C 86% Calm Calm -- 30.10 in1019.3 mb - 0.00 in0.0 mm 0.00 in0.0 mm
02:10 AM 43.2°F6.2°C 39.3°F4.1°C 86% 1.2 mph E1.9 kmh E 2.3 mph3.7 kmh 30.10 in1019.3 mb - 0.00 in0.0 mm 0.00 in0.0 mm
02:15 AM 43.4°F6.3°C 38.9°F3.8°C 84% 2.3 mph WNW3.7 kmh WNW 3.5 mph5.6 kmh 30.11 in1019.6 mb - 0.00 in0.0 mm 0.00 in0.0 mm
02:20 AM 43.8°F6.6°C 39.0°F3.9°C 83% Calm Calm -- 30.11 in1019.6 mb - 0.00 in0.0 mm 0.00 in0.0 mm
02:25 AM 44.1°F6.7°C 39.3°F4.1°C 83% 1.2 mph WNW1.9 kmh WNW 2.3 mph3.7 kmh 30.11 in1019.6 mb - 0.00 in0.0 mm 0.00 in0.0 mm
02:30 AM 44.2°F6.8°C 39.1°F3.9°C 82% Calm Calm -- 30.11 in1019.6 mb - 0.00 in0.0 mm 0.00 in0.0 mm
02:35 AM 44.4°F6.9°C 39.6°F4.2°C 83% Calm Calm -- 30.11 in1019.6 mb - 0.00 in0.0 mm 0.00 in0.0 mm
02:40 AM 44.4°F6.9°C 39.3°F4.1°C 82% Calm Calm 1.2 mph1.9 kmh 30.11 in1019.6 mb - 0.00 in0.0 mm 0.00 in0.0 mm
02:45 AM 44.6°F7.0°C 39.1°F3.9°C 81% Calm Calm 1.2 mph1.9 kmh 30.11 in1019.6 mb - 0.00 in0.0 mm 0.00 in0.0 mm
02:50 AM 44.7°F7.1°C 38.9°F3.8°C 80% Calm Calm -- 30.11 in1019.6 mb - 0.00 in0.0 mm 0.00 in0.0 mm
02:55 AM 44.8°F7.1°C 39.0°F3.9°C 80% Calm Calm -- 30.11 in1019.6 mb - 0.00 in0.0 mm 0.00 in0.0 mm
03:00 AM 44.9°F7.2°C 39.1°F3.9°C 80% Calm Calm -- 30.11 in1019.6 mb - 0.00 in0.0 mm 0.00 in0.0 mm
03:10 AM 44.9°F7.2°C 39.1°F3.9°C 80% Calm Calm -- 30.11 in1019.6 mb - 0.00 in0.0 mm 0.00 in0.0 mm
03:20 AM 44.9°F7.2°C 39.4°F4.1°C 81% Calm Calm -- 30.11 in1019.6 mb - 0.00 in0.0 mm 0.00 in0.0 mm
03:25 AM 44.7°F7.1°C 39.5°F4.2°C 82% Calm Calm -- 30.10 in1019.3 mb - 0.00 in0.0 mm 0.00 in0.0 mm
03:30 AM 44.6°F7.0°C 39.8°F4.3°C 83% Calm Calm -- 30.10 in1019.3 mb - 0.00 in0.0 mm 0.00 in0.0 mm
03:35 AM 44.5°F6.9°C 39.6°F4.2°C 83% Calm Calm -- 30.11 in1019.6 mb - 0.00 in0.0 mm 0.00 in0.0 mm
03:40 AM 44.3°F6.8°C 39.8°F4.3°C 84% Calm Calm -- 30.11 in1019.6 mb - 0.00 in0.0 mm 0.00 in0.0 mm
03:45 AM 44.3°F6.8°C 39.7°F4.3°C 84% Calm Calm -- 30.10 in1019.3 mb - 0.00 in0.0 mm 0.00 in0.0 mm
03:50 AM 44.2°F6.8°C 39.9°F4.4°C 85% Calm Calm -- 30.11 in1019.6 mb - 0.00 in0.0 mm 0.00 in0.0 mm
03:55 AM 44.0°F6.7°C 39.8°F4.3°C 85% Calm Calm -- 30.11 in1019.6 mb - 0.00 in0.0 mm 0.00 in0.0 mm
04:00 AM 44.0°F6.7°C 40.1°F4.5°C 86% Calm Calm -- 30.11 in1019.6 mb - 0.00 in0.0 mm 0.00 in0.0 mm
04:10 AM 44.1°F6.7°C 40.5°F4.7°C 87% Calm Calm -- 30.11 in1019.6 mb - 0.00 in0.0 mm 0.00 in0.0 mm
04:15 AM 44.1°F6.7°C 40.5°F4.7°C 87% Calm Calm -- 30.11 in1019.6 mb - 0.00 in0.0 mm 0.00 in0.0 mm
04:20 AM 44.2°F6.8°C 40.5°F4.7°C 87% Calm Calm 3.5 mph5.6 kmh 30.11 in1019.6 mb - 0.00 in0.0 mm 0.00 in0.0 mm
04:25 AM 44.2°F6.8°C 40.6°F4.8°C 87% 1.2 mph WNW1.9 kmh WNW 2.3 mph3.7 kmh 30.11 in1019.6 mb - 0.00 in0.0 mm 0.00 in0.0 mm
04:30 AM 44.3°F6.8°C 40.7°F4.8°C 87% 1.2 mph WNW1.9 kmh WNW 3.5 mph5.6 kmh 30.11 in1019.6 mb - 0.00 in0.0 mm 0.00 in0.0 mm
04:35 AM 44.4°F6.9°C 40.8°F4.9°C 87% 1.2 mph NW1.9 kmh NW 2.3 mph3.7 kmh 30.12 in1020.0 mb - 0.00 in0.0 mm 0.00 in0.0 mm
04:40 AM 44.5°F6.9°C 40.8°F4.9°C 87% 2.3 mph NW3.7 kmh NW 3.5 mph5.6 kmh 30.12 in1020.0 mb - 0.00 in0.0 mm 0.00 in0.0 mm
04:45 AM 44.5°F6.9°C 40.9°F4.9°C 87% 1.2 mph NW1.9 kmh NW 3.5 mph5.6 kmh 30.12 in1020.0 mb - 0.00 in0.0 mm 0.00 in0.0 mm
04:50 AM 44.6°F7.0°C 40.7°F4.8°C 86% 1.2 mph NW1.9 kmh NW 3.5 mph5.6 kmh 30.12 in1020.0 mb - 0.00 in0.0 mm 0.00 in0.0 mm
04:55 AM 44.7°F7.1°C 40.8°F4.9°C 86% 3.5 mph WNW5.6 kmh WNW 3.5 mph5.6 kmh 30.12 in1020.0 mb - 0.00 in0.0 mm 0.00 in0.0 mm
05:00 AM 44.9°F7.2°C 40.7°F4.8°C 85% 2.3 mph WNW3.7 kmh WNW 3.5 mph5.6 kmh 30.12 in1020.0 mb - 0.00 in0.0 mm 0.00 in0.0 mm
05:10 AM 45.2°F7.3°C 40.6°F4.8°C 84% 1.2 mph WNW1.9 kmh WNW 2.3 mph3.7 kmh 30.12 in1020.0 mb - 0.00 in0.0 mm 0.00 in0.0 mm
05:15 AM 45.3°F7.4°C 40.7°F4.8°C 84% 2.3 mph WNW3.7 kmh WNW 3.5 mph5.6 kmh 30.12 in1020.0 mb - 0.00 in0.0 mm 0.00 in0.0 mm
05:20 AM 45.4°F7.4°C 40.5°F4.7°C 83% 3.5 mph NW5.6 kmh NW 3.5 mph5.6 kmh 30.12 in1020.0 mb - 0.00 in0.0 mm 0.00 in0.0 mm
05:25 AM 45.4°F7.4°C 40.5°F4.7°C 83% 3.5 mph NW5.6 kmh NW 4.6 mph7.4 kmh 30.12 in1020.0 mb - 0.00 in0.0 mm 0.00 in0.0 mm
05:30 AM 45.5°F7.5°C 40.3°F4.6°C 82% 2.3 mph NW3.7 kmh NW 3.5 mph5.6 kmh 30.12 in1020.0 mb - 0.00 in0.0 mm 0.00 in0.0 mm
05:35 AM 45.6°F7.6°C 40.4°F4.7°C 82% 1.2 mph NW1.9 kmh NW 3.5 mph5.6 kmh 30.12 in1020.0 mb - 0.00 in0.0 mm 0.00 in0.0 mm
05:40 AM 45.6°F7.6°C 40.1°F4.5°C 81% 3.5 mph WNW5.6 kmh WNW 3.5 mph5.6 kmh 30.12 in1020.0 mb - 0.00 in0.0 mm 0.00 in0.0 mm
05:45 AM 45.6°F7.6°C 40.1°F4.5°C 81% 3.5 mph WNW5.6 kmh WNW 3.5 mph5.6 kmh 30.12 in1020.0 mb - 0.00 in0.0 mm 0.00 in0.0 mm
05:50 AM 45.7°F7.6°C 39.9°F4.4°C 80% 3.5 mph NW5.6 kmh NW 4.6 mph7.4 kmh 30.11 in1019.6 mb - 0.00 in0.0 mm 0.00 in0.0 mm
05:55 AM 45.7°F7.6°C 39.9°F4.4°C 80% 2.3 mph W3.7 kmh W 3.5 mph5.6 kmh 30.12 in1020.0 mb - 0.00 in0.0 mm 0.00 in0.0 mm
06:00 AM 45.7°F7.6°C 39.9°F4.4°C 80% 2.3 mph WNW3.7 kmh WNW 3.5 mph5.6 kmh 30.11 in1019.6 mb - 0.00 in0.0 mm 0.00 in0.0 mm
06:10 AM 45.7°F7.6°C 39.6°F4.2°C 79% 1.2 mph WNW1.9 kmh WNW 2.3 mph3.7 kmh 30.12 in1020.0 mb - 0.00 in0.0 mm 0.00 in0.0 mm
06:15 AM 45.8°F7.7°C 39.6°F4.2°C 79% Calm Calm -- 30.12 in1020.0 mb - 0.00 in0.0 mm 0.00 in0.0 mm
06:20 AM 45.8°F7.7°C 39.7°F4.3°C 79% 1.2 mph WNW1.9 kmh WNW 2.3 mph3.7 kmh 30.12 in1020.0 mb - 0.00 in0.0 mm 0.00 in0.0 mm
06:25 AM 45.8°F7.7°C 39.7°F4.3°C 79% 1.2 mph WNW1.9 kmh WNW 3.5 mph5.6 kmh 30.12 in1020.0 mb - 0.00 in0.0 mm 0.00 in0.0 mm
06:30 AM 45.8°F7.7°C 39.7°F4.3°C 79% 1.2 mph WNW1.9 kmh WNW 2.3 mph3.7 kmh 30.12 in1020.0 mb - 0.00 in0.0 mm 0.00 in0.0 mm
06:35 AM 45.8°F7.7°C 39.7°F4.3°C 79% 2.3 mph NW3.7 kmh NW 3.5 mph5.6 kmh 30.12 in1020.0 mb - 0.00 in0.0 mm 0.00 in0.0 mm
06:40 AM 45.7°F7.6°C 39.6°F4.2°C 79% 3.5 mph NW5.6 kmh NW 4.6 mph7.4 kmh 30.12 in1020.0 mb - 0.00 in0.0 mm 0.00 in0.0 mm
06:45 AM 45.7°F7.6°C 39.6°F4.2°C 79% 1.2 mph NW1.9 kmh NW 2.3 mph3.7 kmh 30.12 in1020.0 mb - 0.00 in0.0 mm 0.00 in0.0 mm
06:50 AM 45.6°F7.6°C 39.5°F4.2°C 79% 1.2 mph NW1.9 kmh NW 3.5 mph5.6 kmh 30.12 in1020.0 mb - 0.00 in0.0 mm 0.00 in0.0 mm
06:55 AM 45.7°F7.6°C 39.9°F4.4°C 80% 2.3 mph NW3.7 kmh NW 3.5 mph5.6 kmh 30.12 in1020.0 mb - 0.00 in0.0 mm 0.00 in0.0 mm
07:00 AM 45.6°F7.6°C 39.8°F4.3°C 80% 2.3 mph WNW3.7 kmh WNW 3.5 mph5.6 kmh 30.12 in1020.0 mb - 0.00 in0.0 mm 0.00 in0.0 mm
07:10 AM 45.6°F7.6°C 39.5°F4.2°C 79% 1.2 mph WNW1.9 kmh WNW 2.3 mph3.7 kmh 30.12 in1020.0 mb - 0.00 in0.0 mm 0.00 in0.0 mm
07:15 AM 45.6°F7.6°C 39.5°F4.2°C 79% 1.2 mph WNW1.9 kmh WNW 2.3 mph3.7 kmh 30.13 in1020.3 mb - 0.00 in0.0 mm 0.00 in0.0 mm
07:20 AM 45.6°F7.6°C 39.8°F4.3°C 80% 1.2 mph WNW1.9 kmh WNW 2.3 mph3.7 kmh 30.13 in1020.3 mb - 0.00 in0.0 mm 0.00 in0.0 mm
07:25 AM 45.6°F7.6°C 39.8°F4.3°C 80% 2.3 mph WNW3.7 kmh WNW 3.5 mph5.6 kmh 30.13 in1020.3 mb - 0.00 in0.0 mm 0.00 in0.0 mm
07:30 AM 45.6°F7.6°C 39.8°F4.3°C 80% 2.3 mph WNW3.7 kmh WNW 4.6 mph7.4 kmh 30.13 in1020.3 mb - 0.00 in0.0 mm 0.00 in0.0 mm
07:35 AM 45.6°F7.6°C 39.8°F4.3°C 80% 1.2 mph NW1.9 kmh NW 3.5 mph5.6 kmh 30.13 in1020.3 mb - 0.00 in0.0 mm 0.00 in0.0 mm
07:40 AM 45.6°F7.6°C 39.8°F4.3°C 80% 1.2 mph W1.9 kmh W 3.5 mph5.6 kmh 30.12 in1020.0 mb - 0.00 in0.0 mm 0.00 in0.0 mm
07:45 AM 45.6°F7.6°C 40.1°F4.5°C 81% 2.3 mph WNW3.7 kmh WNW 3.5 mph5.6 kmh 30.12 in1020.0 mb - 0.00 in0.0 mm 0.00 in0.0 mm
07:50 AM 45.5°F7.5°C 40.0°F4.4°C 81% 1.2 mph WNW1.9 kmh WNW 2.3 mph3.7 kmh 30.13 in1020.3 mb - 0.00 in0.0 mm 0.00 in0.0 mm
07:55 AM 45.4°F7.4°C 39.9°F4.4°C 81% 1.2 mph WNW1.9 kmh WNW 3.5 mph5.6 kmh 30.13 in1020.3 mb - 0.00 in0.0 mm 0.00 in0.0 mm
08:00 AM 45.3°F7.4°C 39.8°F4.3°C 81% 1.2 mph WNW1.9 kmh WNW 3.5 mph5.6 kmh 30.13 in1020.3 mb - 0.00 in0.0 mm 0.00 in0.0 mm
08:10 AM 45.1°F7.3°C 39.6°F4.2°C 81% 2.3 mph NW3.7 kmh NW 3.5 mph5.6 kmh 30.14 in1020.7 mb - 0.00 in0.0 mm 0.00 in0.0 mm
08:15 AM 45.0°F7.2°C 39.5°F4.2°C 81% 1.2 mph NW1.9 kmh NW 4.6 mph7.4 kmh 30.14 in1020.7 mb - 0.00 in0.0 mm 0.00 in0.0 mm
08:20 AM 44.9°F7.2°C 39.4°F4.1°C 81% 2.3 mph WNW3.7 kmh WNW 3.5 mph5.6 kmh 30.15 in1021.0 mb - 0.00 in0.0 mm 0.00 in0.0 mm
08:25 AM 44.9°F7.2°C 39.4°F4.1°C 81% 2.3 mph NW3.7 kmh NW 4.6 mph7.4 kmh 30.15 in1021.0 mb - 0.00 in0.0 mm 0.00 in0.0 mm
08:30 AM 44.9°F7.2°C 39.1°F3.9°C 80% 3.5 mph NW5.6 kmh NW 4.6 mph7.4 kmh 30.15 in1021.0 mb - 0.00 in0.0 mm 0.00 in0.0 mm
08:35 AM 45.0°F7.2°C 38.8°F3.8°C 79% 3.5 mph WNW5.6 kmh WNW 3.5 mph5.6 kmh 30.15 in1021.0 mb - 0.00 in0.0 mm 0.00 in0.0 mm
08:40 AM 45.0°F7.2°C 38.6°F3.7°C 78% 4.6 mph WNW7.4 kmh WNW 4.6 mph7.4 kmh 30.15 in1021.0 mb - 0.00 in0.0 mm 0.00 in0.0 mm
08:45 AM 45.1°F7.3°C 38.6°F3.7°C 78% 5.8 mph NW9.3 kmh NW 8.1 mph13.0 kmh 30.15 in1021.0 mb - 0.00 in0.0 mm 0.00 in0.0 mm
08:50 AM 45.2°F7.3°C 38.7°F3.7°C 78% 3.5 mph NW5.6 kmh NW 6.9 mph11.1 kmh 30.16 in1021.3 mb - 0.00 in0.0 mm 0.00 in0.0 mm
08:55 AM 45.4°F7.4°C 38.9°F3.8°C 78% 2.3 mph WNW3.7 kmh WNW 3.5 mph5.6 kmh 30.16 in1021.3 mb - 0.00 in0.0 mm 0.00 in0.0 mm
09:00 AM 45.5°F7.5°C 38.7°F3.7°C 77% 3.5 mph NW5.6 kmh NW 3.5 mph5.6 kmh 30.16 in1021.3 mb - 0.00 in0.0 mm 0.00 in0.0 mm
09:10 AM 45.7°F7.6°C 38.9°F3.8°C 77% 2.3 mph NW3.7 kmh NW 3.5 mph5.6 kmh 30.16 in1021.3 mb - 0.00 in0.0 mm 0.00 in0.0 mm
09:15 AM 45.9°F7.7°C 39.1°F3.9°C 77% 3.5 mph NNW5.6 kmh NNW 3.5 mph5.6 kmh 30.16 in1021.3 mb - 0.00 in0.0 mm 0.00 in0.0 mm
09:20 AM 46.0°F7.8°C 38.9°F3.8°C 76% 2.3 mph NW3.7 kmh NW 3.5 mph5.6 kmh 30.16 in1021.3 mb - 0.00 in0.0 mm 0.00 in0.0 mm
09:25 AM 46.2°F7.9°C 39.1°F3.9°C 76% 4.6 mph NW7.4 kmh NW 3.5 mph5.6 kmh 30.16 in1021.3 mb - 0.00 in0.0 mm 0.00 in0.0 mm
09:30 AM 46.3°F7.9°C 38.8°F3.8°C 75% 3.5 mph NW5.6 kmh NW 3.5 mph5.6 kmh 30.17 in1021.7 mb - 0.00 in0.0 mm 0.00 in0.0 mm
09:35 AM 46.5°F8.1°C 39.0°F3.9°C 75% 4.6 mph WNW7.4 kmh WNW 5.8 mph9.3 kmh 30.16 in1021.3 mb - 0.00 in0.0 mm 0.00 in0.0 mm
09:40 AM 46.7°F8.2°C 39.2°F4.0°C 75% 2.3 mph NW3.7 kmh NW 3.5 mph5.6 kmh 30.17 in1021.7 mb - 0.00 in0.0 mm 0.00 in0.0 mm
09:45 AM 46.9°F8.3°C 39.4°F4.1°C 75% 2.3 mph NW3.7 kmh NW 3.5 mph5.6 kmh 30.17 in1021.7 mb - 0.00 in0.0 mm 0.00 in0.0 mm
09:50 AM 47.0°F8.3°C 39.1°F3.9°C 74% 3.5 mph NW5.6 kmh NW 3.5 mph5.6 kmh 30.17 in1021.7 mb - 0.00 in0.0 mm 0.00 in0.0 mm
09:55 AM 47.2°F8.4°C 39.7°F4.3°C 75% 2.3 mph NW3.7 kmh NW 4.6 mph7.4 kmh 30.17 in1021.7 mb - 0.00 in0.0 mm 0.00 in0.0 mm
10:00 AM 47.4°F8.6°C 39.5°F4.2°C 74% 2.3 mph NNW3.7 kmh NNW 4.6 mph7.4 kmh 30.18 in1022.0 mb - 0.00 in0.0 mm 0.00 in0.0 mm
10:10 AM 47.8°F8.8°C 39.5°F4.2°C 73% 3.5 mph NW5.6 kmh NW 5.8 mph9.3 kmh 30.18 in1022.0 mb - 0.00 in0.0 mm 0.00 in0.0 mm
10:15 AM 48.1°F8.9°C 39.5°F4.2°C 72% 4.6 mph NW7.4 kmh NW 5.8 mph9.3 kmh 30.18 in1022.0 mb - 0.00 in0.0 mm 0.00 in0.0 mm
10:20 AM 48.4°F9.1°C 39.8°F4.3°C 72% 1.2 mph NW1.9 kmh NW 4.6 mph7.4 kmh 30.18 in1022.0 mb - 0.00 in0.0 mm 0.00 in0.0 mm
10:25 AM 48.9°F9.4°C 39.9°F4.4°C 71% 3.5 mph NW5.6 kmh NW 5.8 mph9.3 kmh 30.18 in1022.0 mb - 0.00 in0.0 mm 0.00 in0.0 mm
10:30 AM 49.4°F9.7°C 40.0°F4.4°C 70% 3.5 mph NW5.6 kmh NW 6.9 mph11.1 kmh 30.17 in1021.7 mb - 0.00 in0.0 mm 0.00 in0.0 mm
10:35 AM 49.6°F9.8°C 39.8°F4.3°C 69% 3.5 mph NW5.6 kmh NW 3.5 mph5.6 kmh 30.17 in1021.7 mb - 0.00 in0.0 mm 0.00 in0.0 mm
10:40 AM 49.8°F9.9°C 39.7°F4.3°C 68% 3.5 mph NW5.6 kmh NW 9.2 mph14.8 kmh 30.17 in1021.7 mb - 0.00 in0.0 mm 0.00 in0.0 mm
10:45 AM 50.0°F10.0°C 39.5°F4.2°C 67% 4.6 mph NW7.4 kmh NW 8.1 mph13.0 kmh 30.17 in1021.7 mb - 0.00 in0.0 mm 0.00 in0.0 mm
10:50 AM 50.2°F10.1°C 40.0°F4.4°C 68% 3.5 mph NNW5.6 kmh NNW 3.5 mph5.6 kmh 30.17 in1021.7 mb - 0.00 in0.0 mm 0.00 in0.0 mm
10:55 AM 50.5°F10.3°C 40.3°F4.6°C 68% 1.2 mph NW1.9 kmh NW 3.5 mph5.6 kmh 30.17 in1021.7 mb - 0.00 in0.0 mm 0.00 in0.0 mm
11:00 AM 51.0°F10.6°C 40.0°F4.4°C 66% 4.6 mph NNW7.4 kmh NNW 5.8 mph9.3 kmh 30.17 in1021.7 mb - 0.00 in0.0 mm 0.00 in0.0 mm
11:10 AM 51.7°F10.9°C 39.9°F4.4°C 64% 3.5 mph NW5.6 kmh NW 5.8 mph9.3 kmh 30.16 in1021.3 mb - 0.00 in0.0 mm 0.00 in0.0 mm
11:15 AM 52.2°F11.2°C 40.0°F4.4°C 63% 5.8 mph NNW9.3 kmh NNW 8.1 mph13.0 kmh 30.16 in1021.3 mb - 0.00 in0.0 mm 0.00 in0.0 mm
11:20 AM 52.8°F11.6°C 41.0°F5.0°C 64% 2.3 mph NW3.7 kmh NW 10.4 mph16.7 kmh 30.16 in1021.3 mb - 0.00 in0.0 mm 0.00 in0.0 mm
11:25 AM 53.5°F11.9°C 39.9°F4.4°C 60% 4.6 mph N7.4 kmh N 10.4 mph16.7 kmh 30.16 in1021.3 mb - 0.00 in0.0 mm 0.00 in0.0 mm
11:30 AM 53.6°F12.0°C 40.0°F4.4°C 60% 3.5 mph NNW5.6 kmh NNW 5.8 mph9.3 kmh 30.16 in1021.3 mb - 0.00 in0.0 mm 0.00 in0.0 mm
11:35 AM 54.0°F12.2°C 40.0°F4.4°C 59% 3.5 mph NW5.6 kmh NW 5.8 mph9.3 kmh 30.16 in1021.3 mb - 0.00 in0.0 mm 0.00 in0.0 mm
11:40 AM 54.3°F12.4°C 40.3°F4.6°C 59% 6.9 mph NNW11.1 kmh NNW 10.4 mph16.7 kmh 30.16 in1021.3 mb - 0.00 in0.0 mm 0.00 in0.0 mm
11:45 AM 54.5°F12.5°C 40.5°F4.7°C 59% 3.5 mph NW5.6 kmh NW 4.6 mph7.4 kmh 30.16 in1021.3 mb - 0.00 in0.0 mm 0.00 in0.0 mm
11:50 AM 54.8°F12.7°C 39.8°F4.3°C 57% 5.8 mph NW9.3 kmh NW 8.1 mph13.0 kmh 30.16 in1021.3 mb - 0.00 in0.0 mm 0.00 in0.0 mm
11:55 AM 54.9°F12.7°C 40.9°F4.9°C 59% 2.3 mph NE3.7 kmh NE 5.8 mph9.3 kmh 30.16 in1021.3 mb - 0.00 in0.0 mm 0.00 in0.0 mm
12:00 PM 55.0°F12.8°C 40.5°F4.7°C 58% 3.5 mph NE5.6 kmh NE 9.2 mph14.8 kmh 30.16 in1021.3 mb - 0.00 in0.0 mm 0.00 in0.0 mm
12:10 PM 55.0°F12.8°C 40.5°F4.7°C 58% 5.8 mph ENE9.3 kmh ENE 8.1 mph13.0 kmh 30.15 in1021.0 mb - 0.00 in0.0 mm 0.00 in0.0 mm
12:15 PM 55.1°F12.8°C 40.5°F4.7°C 58% 2.3 mph N3.7 kmh N 3.5 mph5.6 kmh 30.15 in1021.0 mb - 0.00 in0.0 mm 0.00 in0.0 mm
12:20 PM 55.3°F12.9°C 40.8°F4.9°C 58% 1.2 mph NE1.9 kmh NE 3.5 mph5.6 kmh 30.15 in1021.0 mb - 0.00 in0.0 mm 0.00 in0.0 mm
12:25 PM 55.5°F13.1°C 40.5°F4.7°C 57% 4.6 mph NE7.4 kmh NE 6.9 mph11.1 kmh 30.14 in1020.7 mb - 0.00 in0.0 mm 0.00 in0.0 mm
12:30 PM 55.5°F13.1°C 41.4°F5.2°C 59% 3.5 mph E5.6 kmh E 4.6 mph7.4 kmh 30.14 in1020.7 mb - 0.00 in0.0 mm 0.00 in0.0 mm
12:35 PM 55.2°F12.9°C 41.1°F5.1°C 59% 3.5 mph ENE5.6 kmh ENE 3.5 mph5.6 kmh 30.14 in1020.7 mb - 0.00 in0.0 mm 0.00 in0.0 mm
12:40 PM 55.2°F12.9°C 40.7°F4.8°C 58% 5.8 mph ESE9.3 kmh ESE 9.2 mph14.8 kmh 30.14 in1020.7 mb - 0.00 in0.0 mm 0.00 in0.0 mm
12:45 PM 55.4°F13.0°C 40.9°F4.9°C 58% 4.6 mph ENE7.4 kmh ENE 6.9 mph11.1 kmh 30.14 in1020.7 mb - 0.00 in0.0 mm 0.00 in0.0 mm
12:50 PM 55.8°F13.2°C 41.2°F5.1°C 58% 4.6 mph NE7.4 kmh NE 5.8 mph9.3 kmh 30.14 in1020.7 mb - 0.00 in0.0 mm 0.00 in0.0 mm
12:55 PM 55.8°F13.2°C 41.2°F5.1°C 58% 3.5 mph ENE5.6 kmh ENE 8.1 mph13.0 kmh 30.14 in1020.7 mb - 0.00 in0.0 mm 0.00 in0.0 mm
01:00 PM 55.7°F13.2°C 41.6°F5.3°C 59% 2.3 mph NNE3.7 kmh NNE 3.5 mph5.6 kmh 30.14 in1020.7 mb - 0.00 in0.0 mm 0.00 in0.0 mm
01:10 PM 55.6°F13.1°C 41.9°F5.5°C 60% 2.3 mph E3.7 kmh E 4.6 mph7.4 kmh 30.14 in1020.7 mb - 0.00 in0.0 mm 0.00 in0.0 mm
01:15 PM 55.7°F13.2°C 41.2°F5.1°C 58% 3.5 mph E5.6 kmh E 5.8 mph9.3 kmh 30.13 in1020.3 mb - 0.00 in0.0 mm 0.00 in0.0 mm
01:20 PM 55.9°F13.3°C 40.9°F4.9°C 57% 4.6 mph ENE7.4 kmh ENE 6.9 mph11.1 kmh 30.14 in1020.7 mb - 0.00 in0.0 mm 0.00 in0.0 mm
01:25 PM 56.1°F13.4°C 41.6°F5.3°C 58% 3.5 mph E5.6 kmh E 3.5 mph5.6 kmh 30.13 in1020.3 mb - 0.00 in0.0 mm 0.00 in0.0 mm
01:30 PM 56.6°F13.7°C 42.4°F5.8°C 59% 1.2 mph ENE1.9 kmh ENE 3.5 mph5.6 kmh 30.13 in1020.3 mb - 0.00 in0.0 mm 0.00 in0.0 mm
01:35 PM 56.7°F13.7°C 41.6°F5.3°C 57% 2.3 mph E3.7 kmh E 3.5 mph5.6 kmh 30.13 in1020.3 mb - 0.00 in0.0 mm 0.00 in0.0 mm
01:40 PM 57.2°F14.0°C 43.0°F6.1°C 59% 3.5 mph ENE5.6 kmh ENE 10.4 mph16.7 kmh 30.12 in1020.0 mb - 0.00 in0.0 mm 0.00 in0.0 mm
01:45 PM 57.6°F14.2°C 42.0°F5.6°C 56% 4.6 mph ENE7.4 kmh ENE 6.9 mph11.1 kmh 30.12 in1020.0 mb - 0.00 in0.0 mm 0.00 in0.0 mm
01:50 PM 57.4°F14.1°C 42.3°F5.7°C 57% 2.3 mph ESE3.7 kmh ESE 6.9 mph11.1 kmh 30.12 in1020.0 mb - 0.00 in0.0 mm 0.00 in0.0 mm
01:55 PM 57.7°F14.3°C 41.6°F5.3°C 55% 3.5 mph NNW5.6 kmh NNW 4.6 mph7.4 kmh 30.12 in1020.0 mb - 0.00 in0.0 mm 0.00 in0.0 mm
02:00 PM 57.3°F14.1°C 41.3°F5.2°C 55% 2.3 mph ESE3.7 kmh ESE 8.1 mph13.0 kmh 30.11 in1019.6 mb - 0.00 in0.0 mm 0.00 in0.0 mm
02:10 PM 58.0°F14.4°C 41.9°F5.5°C 55% 3.5 mph ENE5.6 kmh ENE 4.6 mph7.4 kmh 30.11 in1019.6 mb - 0.00 in0.0 mm 0.00 in0.0 mm
02:15 PM 57.8°F14.3°C 42.2°F5.7°C 56% 4.6 mph ENE7.4 kmh ENE 10.4 mph16.7 kmh 30.11 in1019.6 mb - 0.00 in0.0 mm 0.00 in0.0 mm
02:20 PM 58.0°F14.4°C 42.4°F5.8°C 56% 1.2 mph NW1.9 kmh NW 3.5 mph5.6 kmh 30.10 in1019.3 mb - 0.00 in0.0 mm 0.00 in0.0 mm
02:25 PM 58.5°F14.7°C 42.9°F6.1°C 56% 2.3 mph NE3.7 kmh NE 4.6 mph7.4 kmh 30.10 in1019.3 mb - 0.00 in0.0 mm 0.00 in0.0 mm
02:30 PM 58.6°F14.8°C 42.0°F5.6°C 54% 3.5 mph N5.6 kmh N 3.5 mph5.6 kmh 30.10 in1019.3 mb - 0.00 in0.0 mm 0.00 in0.0 mm
02:40 PM 58.4°F14.7°C 42.3°F5.7°C 55% 3.5 mph ENE5.6 kmh ENE 6.9 mph11.1 kmh 30.10 in1019.3 mb - 0.00 in0.0 mm 0.00 in0.0 mm
02:45 PM 58.5°F14.7°C 41.9°F5.5°C 54% 3.5 mph NNW5.6 kmh NNW 5.8 mph9.3 kmh 30.10 in1019.3 mb - 0.00 in0.0 mm 0.00 in0.0 mm
02:50 PM 58.6°F14.8°C 42.5°F5.8°C 55% 2.3 mph NE3.7 kmh NE 3.5 mph5.6 kmh 30.10 in1019.3 mb - 0.00 in0.0 mm 0.00 in0.0 mm
02:55 PM 58.9°F14.9°C 42.7°F5.9°C 55% 1.2 mph NE1.9 kmh NE 3.5 mph5.6 kmh 30.10 in1019.3 mb - 0.00 in0.0 mm 0.00 in0.0 mm
03:00 PM 59.0°F15.0°C 41.9°F5.5°C 53% 3.5 mph E5.6 kmh E 4.6 mph7.4 kmh 30.09 in1019.0 mb - 0.00 in0.0 mm 0.00 in0.0 mm
03:10 PM 58.9°F14.9°C 41.3°F5.2°C 52% 2.3 mph S3.7 kmh S 3.5 mph5.6 kmh 30.09 in1019.0 mb - 0.00 in0.0 mm 0.00 in0.0 mm
03:15 PM 58.8°F14.9°C 42.2°F5.7°C 54% 3.5 mph SSE5.6 kmh SSE 5.8 mph9.3 kmh 30.09 in1019.0 mb - 0.00 in0.0 mm 0.00 in0.0 mm
03:20 PM 58.9°F14.9°C 42.8°F6.0°C 55% 2.3 mph SE3.7 kmh SE 3.5 mph5.6 kmh 30.09 in1019.0 mb - 0.00 in0.0 mm 0.00 in0.0 mm
03:25 PM 59.3°F15.2°C 42.6°F5.9°C 54% 2.3 mph NE3.7 kmh NE 3.5 mph5.6 kmh 30.09 in1019.0 mb - 0.00 in0.0 mm 0.00 in0.0 mm
03:30 PM 59.3°F15.2°C 42.6°F5.9°C 54% 2.3 mph E3.7 kmh E 3.5 mph5.6 kmh 30.08 in1018.6 mb - 0.00 in0.0 mm 0.00 in0.0 mm
03:35 PM 59.4°F15.2°C 43.2°F6.2°C 55% 4.6 mph E7.4 kmh E 8.1 mph13.0 kmh 30.09 in1019.0 mb - 0.00 in0.0 mm 0.00 in0.0 mm
03:40 PM 59.5°F15.3°C 43.3°F6.3°C 55% 1.2 mph N1.9 kmh N 3.5 mph5.6 kmh 30.08 in1018.6 mb - 0.00 in0.0 mm 0.00 in0.0 mm
03:45 PM 59.7°F15.4°C 43.5°F6.4°C 55% 1.2 mph N1.9 kmh N 3.5 mph5.6 kmh 30.08 in1018.6 mb - 0.00 in0.0 mm 0.00 in0.0 mm
03:50 PM 59.3°F15.2°C 42.7°F5.9°C 54% 1.2 mph E1.9 kmh E 2.3 mph3.7 kmh 30.08 in1018.6 mb - 0.00 in0.0 mm 0.00 in0.0 mm
03:55 PM 58.9°F14.9°C 42.3°F5.7°C 54% 4.6 mph NE7.4 kmh NE 5.8 mph9.3 kmh 30.08 in1018.6 mb - 0.00 in0.0 mm 0.00 in0.0 mm
04:00 PM 58.6°F14.8°C 42.9°F6.1°C 56% 1.2 mph E1.9 kmh E 3.5 mph5.6 kmh 30.08 in1018.6 mb - 0.00 in0.0 mm 0.00 in0.0 mm
04:10 PM 58.5°F14.7°C 42.8°F6.0°C 56% 2.3 mph E3.7 kmh E 3.5 mph5.6 kmh 30.08 in1018.6 mb - 0.00 in0.0 mm 0.00 in0.0 mm
04:15 PM 58.9°F14.9°C 43.7°F6.5°C 57% 1.2 mph E1.9 kmh E 1.2 mph1.9 kmh 30.08 in1018.6 mb - 0.00 in0.0 mm 0.00 in0.0 mm
04:20 PM 59.6°F15.3°C 43.4°F6.3°C 55% 3.5 mph NE5.6 kmh NE 4.6 mph7.4 kmh 30.08 in1018.6 mb - 0.00 in0.0 mm 0.00 in0.0 mm
04:25 PM 59.7°F15.4°C 43.5°F6.4°C 55% 1.2 mph NE1.9 kmh NE 2.3 mph3.7 kmh 30.08 in1018.6 mb - 0.00 in0.0 mm 0.00 in0.0 mm
04:30 PM 59.6°F15.3°C 42.4°F5.8°C 53% 2.3 mph NE3.7 kmh NE 3.5 mph5.6 kmh 30.08 in1018.6 mb - 0.00 in0.0 mm 0.00 in0.0 mm
04:35 PM 59.3°F15.2°C 42.6°F5.9°C 54% 2.3 mph E3.7 kmh E 4.6 mph7.4 kmh 30.08 in1018.6 mb - 0.00 in0.0 mm 0.00 in0.0 mm
04:40 PM 58.8°F14.9°C 41.7°F5.4°C 53% 3.5 mph E5.6 kmh E 3.5 mph5.6 kmh 30.08 in1018.6 mb - 0.00 in0.0 mm 0.00 in0.0 mm
04:45 PM 58.4°F14.7°C 41.8°F5.4°C 54% 2.3 mph E3.7 kmh E 3.5 mph5.6 kmh 30.09 in1019.0 mb - 0.00 in0.0 mm 0.00 in0.0 mm
04:50 PM 58.4°F14.7°C 42.3°F5.7°C 55% 1.2 mph E1.9 kmh E 3.5 mph5.6 kmh 30.09 in1019.0 mb - 0.00 in0.0 mm 0.00 in0.0 mm
04:55 PM 58.5°F14.7°C 41.9°F5.5°C 54% 2.3 mph NNE3.7 kmh NNE 3.5 mph5.6 kmh 30.09 in1019.0 mb - 0.00 in0.0 mm 0.00 in0.0 mm
05:00 PM 58.4°F14.7°C 42.3°F5.7°C 55% 1.2 mph NNE1.9 kmh NNE 3.5 mph5.6 kmh 30.09 in1019.0 mb - 0.00 in0.0 mm 0.00 in0.0 mm
05:10 PM 58.3°F14.6°C 42.7°F5.9°C 56% 2.3 mph NNW3.7 kmh NNW 3.5 mph5.6 kmh 30.08 in1018.6 mb - 0.00 in0.0 mm 0.00 in0.0 mm
05:15 PM 58.2°F14.6°C 42.6°F5.9°C 56% 1.2 mph N1.9 kmh N 3.5 mph5.6 kmh 30.08 in1018.6 mb - 0.00 in0.0 mm 0.00 in0.0 mm
05:20 PM 58.1°F14.5°C 42.9°F6.1°C 57% 1.2 mph N1.9 kmh N 3.5 mph5.6 kmh 30.08 in1018.6 mb - 0.00 in0.0 mm 0.00 in0.0 mm
05:25 PM 58.1°F14.5°C 42.9°F6.1°C 57% 1.2 mph N1.9 kmh N 3.5 mph5.6 kmh 30.08 in1018.6 mb - 0.00 in0.0 mm 0.00 in0.0 mm
05:30 PM 58.1°F14.5°C 43.4°F6.3°C 58% 1.2 mph NNE1.9 kmh NNE 2.3 mph3.7 kmh 30.08 in1018.6 mb - 0.00 in0.0 mm 0.00 in0.0 mm
05:35 PM 58.0°F14.4°C 42.8°F6.0°C 57% 1.2 mph NNE1.9 kmh NNE 1.2 mph1.9 kmh 30.07 in1018.3 mb - 0.00 in0.0 mm 0.00 in0.0 mm
05:40 PM 57.8°F14.3°C 42.7°F5.9°C 57% 1.2 mph NNE1.9 kmh NNE 2.3 mph3.7 kmh 30.07 in1018.3 mb - 0.00 in0.0 mm 0.00 in0.0 mm
05:45 PM 57.6°F14.2°C 42.9°F6.1°C 58% Calm Calm 1.2 mph1.9 kmh 30.07 in1018.3 mb - 0.00 in0.0 mm 0.00 in0.0 mm
05:50 PM 57.4°F14.1°C 43.2°F6.2°C 59% 1.2 mph NNE1.9 kmh NNE 3.5 mph5.6 kmh 30.07 in1018.3 mb - 0.00 in0.0 mm 0.00 in0.0 mm
05:55 PM 57.1°F13.9°C 42.9°F6.1°C 59% Calm Calm 1.2 mph1.9 kmh 30.07 in1018.3 mb - 0.00 in0.0 mm 0.00 in0.0 mm
06:00 PM 56.9°F13.8°C 43.6°F6.4°C 61% Calm Calm -- 30.07 in1018.3 mb - 0.00 in0.0 mm 0.00 in0.0 mm
06:10 PM 56.4°F13.6°C 43.5°F6.4°C 62% 1.2 mph NNE1.9 kmh NNE 2.3 mph3.7 kmh 30.07 in1018.3 mb - 0.00 in0.0 mm 0.00 in0.0 mm
06:15 PM 56.0°F13.3°C 44.0°F6.7°C 64% Calm Calm 1.2 mph1.9 kmh 30.07 in1018.3 mb - 0.00 in0.0 mm 0.00 in0.0 mm
06:20 PM 55.6°F13.1°C 43.7°F6.5°C 64% Calm Calm -- 30.07 in1018.3 mb - 0.00 in0.0 mm 0.00 in0.0 mm
06:25 PM 55.3°F12.9°C 44.1°F6.7°C 66% Calm Calm -- 30.07 in1018.3 mb - 0.00 in0.0 mm 0.00 in0.0 mm
06:30 PM 54.9°F12.7°C 44.2°F6.8°C 67% Calm Calm -- 30.07 in1018.3 mb - 0.00 in0.0 mm 0.00 in0.0 mm
06:35 PM 54.6°F12.6°C 44.2°F6.8°C 68% Calm Calm -- 30.07 in1018.3 mb - 0.00 in0.0 mm 0.00 in0.0 mm
06:40 PM 54.2°F12.3°C 43.8°F6.6°C 68% Calm Calm -- 30.07 in1018.3 mb - 0.00 in0.0 mm 0.00 in0.0 mm
06:45 PM 53.7°F12.1°C 43.8°F6.6°C 69% Calm Calm -- 30.07 in1018.3 mb - 0.00 in0.0 mm 0.00 in0.0 mm
06:50 PM 53.3°F11.8°C 43.7°F6.5°C 70% Calm Calm -- 30.07 in1018.3 mb - 0.00 in0.0 mm 0.00 in0.0 mm
06:55 PM 52.7°F11.5°C 43.9°F6.6°C 72% Calm Calm -- 30.07 in1018.3 mb - 0.00 in0.0 mm 0.00 in0.0 mm
07:00 PM 52.2°F11.2°C 43.8°F6.6°C 73% Calm Calm -- 30.07 in1018.3 mb - 0.00 in0.0 mm 0.00 in0.0 mm
07:10 PM 51.4°F10.8°C 43.8°F6.6°C 75% Calm Calm -- 30.07 in1018.3 mb - 0.00 in0.0 mm 0.00 in0.0 mm
07:15 PM 51.0°F10.6°C 43.7°F6.5°C 76% Calm Calm -- 30.07 in1018.3 mb - 0.00 in0.0 mm 0.00 in0.0 mm
07:20 PM 50.6°F10.3°C 43.7°F6.5°C 77% Calm Calm -- 30.07 in1018.3 mb - 0.00 in0.0 mm 0.00 in0.0 mm
07:25 PM 50.2°F10.1°C 44.0°F6.7°C 79% Calm Calm -- 30.07 in1018.3 mb - 0.00 in0.0 mm 0.00 in0.0 mm
07:30 PM 49.8°F9.9°C 43.9°F6.6°C 80% Calm Calm -- 30.08 in1018.6 mb - 0.00 in0.0 mm 0.00 in0.0 mm
07:35 PM 49.5°F9.7°C 43.9°F6.6°C 81% Calm Calm -- 30.08 in1018.6 mb - 0.00 in0.0 mm 0.00 in0.0 mm
07:40 PM 49.2°F9.6°C 43.9°F6.6°C 82% Calm Calm -- 30.08 in1018.6 mb - 0.00 in0.0 mm 0.00 in0.0 mm
07:45 PM 49.0°F9.4°C 43.7°F6.5°C 82% Calm Calm -- 30.08 in1018.6 mb - 0.00 in0.0 mm 0.00 in0.0 mm
07:50 PM 48.7°F9.3°C 43.8°F6.6°C 83% Calm Calm -- 30.08 in1018.6 mb - 0.00 in0.0 mm 0.00 in0.0 mm
07:55 PM 48.5°F9.2°C 43.5°F6.4°C 83% Calm Calm -- 30.08 in1018.6 mb - 0.00 in0.0 mm 0.00 in0.0 mm
08:00 PM 48.2°F9.0°C 43.3°F6.3°C 83% Calm Calm -- 30.08 in1018.6 mb - 0.00 in0.0 mm 0.00 in0.0 mm
08:10 PM 47.8°F8.8°C 43.2°F6.2°C 84% Calm Calm -- 30.08 in1018.6 mb - 0.00 in0.0 mm 0.00 in0.0 mm
08:15 PM 47.6°F8.7°C 43.3°F6.3°C 85% Calm Calm -- 30.08 in1018.6 mb - 0.00 in0.0 mm 0.00 in0.0 mm
08:20 PM 47.5°F8.6°C 43.2°F6.2°C 85% Calm Calm -- 30.08 in1018.6 mb - 0.00 in0.0 mm 0.00 in0.0 mm
08:25 PM 47.3°F8.5°C 43.0°F6.1°C 85% Calm Calm -- 30.08 in1018.6 mb - 0.00 in0.0 mm 0.00 in0.0 mm
08:30 PM 47.0°F8.3°C 43.1°F6.2°C 86% Calm Calm -- 30.08 in1018.6 mb - 0.00 in0.0 mm 0.00 in0.0 mm
08:35 PM 46.9°F8.3°C 42.9°F6.1°C 86% Calm Calm -- 30.08 in1018.6 mb - 0.00 in0.0 mm 0.00 in0.0 mm
08:40 PM 46.7°F8.2°C 43.0°F6.1°C 87% Calm Calm -- 30.08 in1018.6 mb - 0.00 in0.0 mm 0.00 in0.0 mm
08:45 PM 46.6°F8.1°C 42.9°F6.1°C 87% Calm Calm -- 30.08 in1018.6 mb - 0.00 in0.0 mm 0.00 in0.0 mm
08:50 PM 46.5°F8.1°C 42.8°F6.0°C 87% Calm Calm -- 30.08 in1018.6 mb - 0.00 in0.0 mm 0.00 in0.0 mm
08:55 PM 46.3°F7.9°C 42.9°F6.1°C 88% Calm Calm -- 30.08 in1018.6 mb - 0.00 in0.0 mm 0.00 in0.0 mm
09:00 PM 46.2°F7.9°C 42.8°F6.0°C 88% Calm Calm -- 30.08 in1018.6 mb - 0.00 in0.0 mm 0.00 in0.0 mm
09:10 PM 45.8°F7.7°C 42.5°F5.8°C 88% Calm Calm -- 30.08 in1018.6 mb - 0.00 in0.0 mm 0.00 in0.0 mm
09:15 PM 45.6°F7.6°C 42.3°F5.7°C 88% Calm Calm -- 30.08 in1018.6 mb - 0.00 in0.0 mm 0.00 in0.0 mm
09:20 PM 45.4°F7.4°C 42.4°F5.8°C 89% Calm Calm -- 30.08 in1018.6 mb - 0.00 in0.0 mm 0.00 in0.0 mm
09:25 PM 45.3°F7.4°C 42.2°F5.7°C 89% Calm Calm -- 30.08 in1018.6 mb - 0.00 in0.0 mm 0.00 in0.0 mm
09:30 PM 45.1°F7.3°C 42.1°F5.6°C 89% Calm Calm -- 30.08 in1018.6 mb - 0.00 in0.0 mm 0.00 in0.0 mm
09:35 PM 45.0°F7.2°C 42.0°F5.6°C 89% Calm Calm -- 30.08 in1018.6 mb - 0.00 in0.0 mm 0.00 in0.0 mm
09:40 PM 44.8°F7.1°C 41.8°F5.4°C 89% Calm Calm -- 30.08 in1018.6 mb - 0.00 in0.0 mm 0.00 in0.0 mm
09:45 PM 44.7°F7.1°C 41.9°F5.5°C 90% Calm Calm -- 30.07 in1018.3 mb - 0.00 in0.0 mm 0.00 in0.0 mm
09:50 PM 44.5°F6.9°C 41.7°F5.4°C 90% Calm Calm -- 30.07 in1018.3 mb - 0.00 in0.0 mm 0.00 in0.0 mm
09:55 PM 44.3°F6.8°C 41.6°F5.3°C 90% Calm Calm -- 30.07 in1018.3 mb - 0.00 in0.0 mm 0.00 in0.0 mm
10:00 PM 44.2°F6.8°C 41.5°F5.3°C 90% Calm Calm -- 30.07 in1018.3 mb - 0.00 in0.0 mm 0.00 in0.0 mm
10:10 PM 44.0°F6.7°C 41.5°F5.3°C 91% Calm Calm -- 30.07 in1018.3 mb - 0.00 in0.0 mm 0.00 in0.0 mm
10:15 PM 43.9°F6.6°C 41.4°F5.2°C 91% Calm Calm -- 30.07 in1018.3 mb - 0.00 in0.0 mm 0.00 in0.0 mm
10:20 PM 43.9°F6.6°C 41.4°F5.2°C 91% Calm Calm -- 30.07 in1018.3 mb - 0.00 in0.0 mm 0.00 in0.0 mm
10:25 PM 43.9°F6.6°C 41.4°F5.2°C 91% Calm Calm -- 30.07 in1018.3 mb - 0.00 in0.0 mm 0.00 in0.0 mm
10:30 PM 43.8°F6.6°C 41.3°F5.2°C 91% Calm Calm -- 30.07 in1018.3 mb - 0.00 in0.0 mm 0.00 in0.0 mm
10:35 PM 43.6°F6.4°C 41.2°F5.1°C 91% Calm Calm -- 30.07 in1018.3 mb - 0.00 in0.0 mm 0.00 in0.0 mm
10:40 PM 43.6°F6.4°C 41.4°F5.2°C 92% Calm Calm -- 30.07 in1018.3 mb - 0.00 in0.0 mm 0.00 in0.0 mm
10:45 PM 43.5°F6.4°C 41.0°F5.0°C 91% Calm Calm -- 30.07 in1018.3 mb - 0.00 in0.0 mm 0.00 in0.0 mm
10:50 PM 43.4°F6.3°C 41.2°F5.1°C 92% Calm Calm -- 30.07 in1018.3 mb - 0.00 in0.0 mm 0.00 in0.0 mm
10:55 PM 43.3°F6.3°C 41.1°F5.1°C 92% Calm Calm -- 30.07 in1018.3 mb - 0.00 in0.0 mm 0.00 in0.0 mm
11:00 PM 43.1°F6.2°C 41.0°F5.0°C 92% Calm Calm -- 30.06 in1017.9 mb - 0.00 in0.0 mm 0.00 in0.0 mm
11:10 PM 42.9°F6.1°C 40.7°F4.8°C 92% Calm Calm -- 30.06 in1017.9 mb - 0.00 in0.0 mm 0.00 in0.0 mm
11:15 PM 42.8°F6.0°C 40.7°F4.8°C 92% Calm Calm -- 30.06 in1017.9 mb - 0.00 in0.0 mm 0.00 in0.0 mm
11:20 PM 42.7°F5.9°C 40.6°F4.8°C 92% Calm Calm 1.2 mph1.9 kmh 30.06 in1017.9 mb - 0.00 in0.0 mm 0.00 in0.0 mm
11:25 PM 42.8°F6.0°C 40.7°F4.8°C 92% Calm Calm 1.2 mph1.9 kmh 30.06 in1017.9 mb - 0.00 in0.0 mm 0.00 in0.0 mm
11:30 PM 43.1°F6.2°C 40.9°F4.9°C 92% Calm Calm 1.2 mph1.9 kmh 30.05 in1017.6 mb - 0.00 in0.0 mm 0.00 in0.0 mm
11:35 PM 43.2°F6.2°C 41.0°F5.0°C 92% Calm Calm -- 30.05 in1017.6 mb - 0.00 in0.0 mm 0.00 in0.0 mm
11:40 PM 43.3°F6.3°C 41.1°F5.1°C 92% Calm Calm 1.2 mph1.9 kmh 30.05 in1017.6 mb - 0.00 in0.0 mm 0.00 in0.0 mm
11:45 PM 43.3°F6.3°C 40.8°F4.9°C 91% Calm Calm -- 30.05 in1017.6 mb - 0.00 in0.0 mm 0.00 in0.0 mm
11:50 PM 43.3°F6.3°C 40.8°F4.9°C 91% Calm Calm -- 30.05 in1017.6 mb - 0.00 in0.0 mm 0.00 in0.0 mm